This is the latest recevied weather packets stored in our database for station/object KC2BRB-1. If no packets are shown the sender has not sent any weather packets the latest 10 day(s).
| Time | Temp. | Humidity | Pressure | Rain* | Wind** | Luminosity | Snow |
|---|---|---|---|---|---|---|---|
| 1777606665 | 23.89° C | 81% | 1009.8 hPa | 0 mm | - | - | - |
| 1777606064 | 23.89° C | 81% | 1009.7 hPa | 0 mm | - | - | - |
| 1777605763 | 23.89° C | 80% | 1009.7 hPa | 0 mm | - | - | - |
| 1777605463 | 23.89° C | 80% | 1009.7 hPa | 0 mm | - | - | - |
| 1777605164 | 24.44° C | 80% | 1009.7 hPa | 0 mm | - | - | - |
| 1777604864 | 24.44° C | 80% | 1009.7 hPa | 0 mm | - | - | - |
| 1777604564 | 24.44° C | 80% | 1009.4 hPa | 0 mm | - | - | - |
| 1777603964 | 24.44° C | 78% | 1009.4 hPa | 0 mm | - | - | - |
| 1777603364 | 24.44° C | 77% | 1009.4 hPa | 0 mm | - | - | - |
| 1777603064 | 24.44° C | 77% | 1009.4 hPa | 0 mm | - | - | - |
| 1777602764 | 25° C | 77% | 1009.6 hPa | 0 mm | - | - | - |
| 1777602164 | 25° C | 76% | 1009.6 hPa | 0 mm | - | - | - |
| 1777601864 | 25° C | 76% | 1009.6 hPa | 0 mm | - | - | - |
| 1777601564 | 25° C | 75% | 1009.2 hPa | 0 mm | - | - | - |
| 1777600964 | 25° C | 75% | 1008.9 hPa | 0 mm | - | - | - |
| 1777600664 | 25° C | 75% | 1008.9 hPa | 0 mm | - | - | - |
| 1777600364 | 25° C | 74% | 1008.9 hPa | 0 mm | - | - | - |
| 1777587165 | 30.56° C | 52% | 1007.1 hPa | 0 mm | - | - | - |
| 1777585415 | 29.44° C | 55% | 1007.2 hPa | 0 mm | - | - | - |
| 1777585365 | 29.44° C | 55% | 1007.2 hPa | 0 mm | - | - | - |
| 1777583913 | 30° C | 50% | 1007.1 hPa | 0 mm | - | - | - |
| 1777583045 | 30.56° C | 48% | 1007.2 hPa | 0 mm | - | - | - |
| 1777582752 | 30.56° C | 48% | 1007.2 hPa | 0 mm | - | - | - |
| 1777582428 | 31.11° C | 45% | 1007.2 hPa | 0 mm | - | - | - |
| 1777581805 | 31.67° C | 45% | 1007.1 hPa | 0 mm | - | - | - |
* Rain latest hour (hover to see other rain measurements)
** Current wind speed in m/s (hover to see current wind gust speed)